createdAt,value
2018-02-11T00:00:21.276Z,84.19
2018-02-11T00:02:14.257Z,85.13
2018-02-11T00:03:14.197Z,84.85
2018-02-11T00:05:07.137Z,84.66
2018-02-11T00:06:07.119Z,85.32
2018-02-11T00:08:00.277Z,85.80
2018-02-11T00:09:00.171Z,86.36
2018-02-11T00:10:53.208Z,86.93
2018-02-11T00:11:53.178Z,86.83
2018-02-11T00:13:46.447Z,86.93
2018-02-11T00:14:46.296Z,87.50
2018-02-11T00:16:39.238Z,88.17
2018-02-11T00:17:39.203Z,88.35
2018-02-11T00:19:32.166Z,90.11
2018-02-11T00:20:32.113Z,90.01
2018-02-11T00:22:25.233Z,91.72
2018-02-11T00:23:25.191Z,91.62
2018-02-11T00:25:18.171Z,93.13
2018-02-11T00:26:18.111Z,92.76
2018-02-11T00:28:10.892Z,93.70
2018-02-11T00:29:10.864Z,93.51
2018-02-11T00:31:03.843Z,94.27
2018-02-11T00:32:03.770Z,94.56
2018-02-11T00:33:56.698Z,95.31
2018-02-11T00:34:56.672Z,95.31
2018-02-11T00:36:49.609Z,95.78
2018-02-11T00:37:49.553Z,96.26
2018-02-11T00:39:42.507Z,97.02
2018-02-11T00:40:42.437Z,97.16
2018-02-11T00:42:35.651Z,97.58
2018-02-11T00:43:35.536Z,97.25
2018-02-11T00:45:28.479Z,97.34
2018-02-11T00:46:28.408Z,97.25
2018-02-11T00:48:21.198Z,97.91
2018-02-11T00:49:21.161Z,98.39
2018-02-11T00:51:14.529Z,98.86
2018-02-11T00:52:14.367Z,98.86
2018-02-11T00:54:07.154Z,98.86
2018-02-11T00:55:07.114Z,98.39
2018-02-11T00:57:00.208Z,98.77
2018-02-11T00:58:00.165Z,98.96
2018-02-11T00:59:53.146Z,98.86
2018-02-11T01:00:53.099Z,99.15
2018-02-11T01:02:46.050Z,99.05
2018-02-11T01:03:45.844Z,98.96
2018-02-11T01:05:38.771Z,99.05
2018-02-11T01:06:38.728Z,98.96
2018-02-11T01:08:31.676Z,98.39
2018-02-11T01:09:31.628Z,98.39
2018-02-11T01:11:24.757Z,97.25
2018-02-11T01:12:24.677Z,97.16
2018-02-11T01:14:17.610Z,97.16
2018-02-11T01:15:17.563Z,96.31
2018-02-11T01:17:10.531Z,96.12
2018-02-11T01:18:10.483Z,95.36
2018-02-11T01:20:03.641Z,95.03
2018-02-11T01:21:03.565Z,94.18
2018-02-11T01:22:56.533Z,93.89
2018-02-11T01:23:56.473Z,93.80
2018-02-11T01:25:49.419Z,93.42
2018-02-11T01:26:49.425Z,93.80
2018-02-11T01:28:42.178Z,93.42
2018-02-11T01:29:42.111Z,93.42
2018-02-11T01:31:35.180Z,92.47
2018-02-11T01:32:35.117Z,93.42
2018-02-11T01:34:28.092Z,93.04
2018-02-11T01:35:28.032Z,93.51
2018-02-11T01:37:20.964Z,93.80
2018-02-11T01:38:20.924Z,94.27
2018-02-11T01:40:14.092Z,94.08
2018-02-11T01:41:14.012Z,94.18
2018-02-11T01:43:06.952Z,93.70
2018-02-11T01:44:06.894Z,94.27
2018-02-11T01:45:59.842Z,93.61
2018-02-11T01:46:59.793Z,93.99
2018-02-11T01:48:52.619Z,94.37
2018-02-11T01:49:52.559Z,94.18
2018-02-11T01:51:45.542Z,93.70
2018-02-11T01:52:45.503Z,93.99
2018-02-11T01:54:38.600Z,93.61
2018-02-11T01:55:38.604Z,94.56
2018-02-11T01:57:31.728Z,94.08
2018-02-11T01:58:31.615Z,94.56
2018-02-11T02:00:24.567Z,93.99
2018-02-11T02:01:24.513Z,94.46
2018-02-11T02:03:17.443Z,94.37
2018-02-11T02:04:17.409Z,94.56
2018-02-11T02:06:10.613Z,94.08
2018-02-11T02:07:10.488Z,94.08
2018-02-11T02:09:03.430Z,93.61
2018-02-11T02:10:03.382Z,94.08
2018-02-11T02:11:56.194Z,93.61
2018-02-11T02:12:56.136Z,93.70
2018-02-11T02:14:49.078Z,93.70
2018-02-11T02:15:49.048Z,93.80
2018-02-11T02:17:41.864Z,93.32
2018-02-11T02:18:41.809Z,93.51
2018-02-11T02:20:34.763Z,93.89
2018-02-11T02:21:34.693Z,93.04
2018-02-11T02:23:27.627Z,93.42
2018-02-11T02:24:27.595Z,93.32
2018-02-11T02:26:20.553Z,92.85
2018-02-11T02:27:20.495Z,93.04
2018-02-11T02:29:13.284Z,92.85
2018-02-11T02:30:13.260Z,93.13
2018-02-11T02:32:06.579Z,93.04
2018-02-11T02:33:06.502Z,93.23
2018-02-11T02:34:59.443Z,92.47
2018-02-11T02:35:59.393Z,92.47
2018-02-11T02:37:52.479Z,91.81
2018-02-11T02:38:52.407Z,92.29
2018-02-11T02:40:45.345Z,91.91
2018-02-11T02:41:45.305Z,92.14
2018-02-11T02:43:38.254Z,91.67
2018-02-11T02:44:38.200Z,91.29
2018-02-11T02:46:31.289Z,91.57
2018-02-11T02:47:31.249Z,90.91
2018-02-11T02:49:24.214Z,91.57
2018-02-11T02:50:24.148Z,91.19
2018-02-11T02:52:17.100Z,91.38
2018-02-11T02:53:17.043Z,90.53
2018-02-11T02:55:09.873Z,91.29
2018-02-11T02:56:09.823Z,91.19
2018-02-11T02:58:02.785Z,91.00
2018-02-11T02:59:02.623Z,90.72
2018-02-11T03:00:55.573Z,91.29
2018-02-11T03:01:55.509Z,91.57
2018-02-11T03:03:48.479Z,91.29
2018-02-11T03:04:48.476Z,91.29
2018-02-11T03:06:41.663Z,91.29
2018-02-11T03:07:41.550Z,91.10
2018-02-11T03:09:34.512Z,91.00
2018-02-11T03:10:34.448Z,90.81
2018-02-11T03:12:27.378Z,90.63
2018-02-11T03:13:27.348Z,90.81
2018-02-11T03:15:20.511Z,90.06
2018-02-11T03:16:20.447Z,90.25
2018-02-11T03:18:13.399Z,90.34
2018-02-11T03:19:13.357Z,90.15
2018-02-11T03:21:06.314Z,90.34
2018-02-11T03:22:06.268Z,90.06
2018-02-11T03:23:59.129Z,90.06
2018-02-11T03:24:59.081Z,89.96
2018-02-11T03:26:52.020Z,89.68
2018-02-11T03:27:51.973Z,89.58
2018-02-11T03:29:44.929Z,89.39
2018-02-11T03:30:44.872Z,90.25
2018-02-11T03:32:37.673Z,89.49
2018-02-11T03:33:37.704Z,90.25
2018-02-11T03:35:30.808Z,89.87
2018-02-11T03:36:30.747Z,90.34
2018-02-11T03:38:23.703Z,90.34
2018-02-11T03:39:23.657Z,90.91
2018-02-11T03:41:16.464Z,90.44
2018-02-11T03:42:16.518Z,90.91
2018-02-11T03:44:09.373Z,91.19
2018-02-11T03:45:09.312Z,90.53
2018-02-11T03:47:02.363Z,91.00
2018-02-11T03:48:02.309Z,90.63
2018-02-11T03:49:55.256Z,91.38
2018-02-11T03:50:55.209Z,91.19
2018-02-11T03:52:48.174Z,91.76
2018-02-11T03:53:48.114Z,91.95
2018-02-11T03:55:40.967Z,92.61
2018-02-11T03:56:40.932Z,92.52
2018-02-11T03:58:33.868Z,92.52
2018-02-11T03:59:33.809Z,93.27
2018-02-11T04:01:26.750Z,92.71
2018-02-11T04:02:26.709Z,92.24
2018-02-11T04:04:19.668Z,92.90
2018-02-11T04:05:19.602Z,92.14
2018-02-11T04:07:12.483Z,92.61
2018-02-11T04:08:12.423Z,92.61
2018-02-11T04:10:05.262Z,92.14
2018-02-11T04:11:05.219Z,92.24
2018-02-11T04:12:58.040Z,91.57
2018-02-11T04:13:57.977Z,91.38
2018-02-11T04:15:50.916Z,91.38
2018-02-11T04:16:50.878Z,91.29
2018-02-11T04:18:44.079Z,91.57
2018-02-11T04:19:44.003Z,91.38
2018-02-11T04:21:36.947Z,91.19
2018-02-11T04:22:36.904Z,91.57
2018-02-11T04:24:29.874Z,91.95
2018-02-11T04:25:29.802Z,92.05
2018-02-11T04:27:22.928Z,91.10
2018-02-11T04:28:22.858Z,91.19
2018-02-11T04:30:15.840Z,91.19
2018-02-11T04:31:15.788Z,91.19
2018-02-11T04:33:08.734Z,90.91
2018-02-11T04:34:08.722Z,91.76
2018-02-11T04:36:01.475Z,91.76
2018-02-11T04:37:01.413Z,92.33
2018-02-11T04:38:54.650Z,92.71
2018-02-11T04:39:54.589Z,92.99
2018-02-11T04:41:47.374Z,93.08
2018-02-11T04:42:47.343Z,92.52
2018-02-11T04:44:40.289Z,92.71
2018-02-11T04:45:40.233Z,92.33
2018-02-11T04:47:33.300Z,91.52
2018-02-11T04:48:33.192Z,91.57
2018-02-11T04:50:26.129Z,91.71
2018-02-11T04:51:26.083Z,91.62
2018-02-11T04:53:19.018Z,91.81
2018-02-11T04:54:18.984Z,91.52
2018-02-11T04:56:12.188Z,93.23
2018-02-11T04:57:12.059Z,93.32
2018-02-11T04:59:05.023Z,93.56
2018-02-11T05:00:04.970Z,93.84
2018-02-11T05:01:57.800Z,94.84
2018-02-11T05:02:57.737Z,93.13
2018-02-11T05:04:50.683Z,93.70
2018-02-11T05:05:50.648Z,93.27
2018-02-11T05:07:43.493Z,93.32
2018-02-11T05:08:43.429Z,93.13
2018-02-11T05:10:36.370Z,93.75
2018-02-11T05:11:36.323Z,94.08
2018-02-11T05:13:29.297Z,92.57
2018-02-11T05:14:29.238Z,92.19
2018-02-11T05:16:22.349Z,92.19
2018-02-11T05:17:22.279Z,92.52
2018-02-11T05:19:15.214Z,92.38
2018-02-11T05:20:15.180Z,92.57
2018-02-11T05:22:08.177Z,92.28
2018-02-11T05:23:08.089Z,91.90
2018-02-11T05:25:00.874Z,90.86
2018-02-11T05:26:00.848Z,90.48
2018-02-11T05:27:54.023Z,90.48
2018-02-11T05:28:53.944Z,90.29
2018-02-11T05:30:46.913Z,90.95
2018-02-11T05:31:46.858Z,90.77
2018-02-11T05:33:39.815Z,90.20
2018-02-11T05:34:39.760Z,89.82
2018-02-11T05:36:32.568Z,90.20
2018-02-11T05:37:32.524Z,90.95
2018-02-11T05:39:25.517Z,91.05
2018-02-11T05:40:25.459Z,90.10
2018-02-11T05:42:18.264Z,90.67
2018-02-11T05:43:18.219Z,90.95
2018-02-11T05:45:11.213Z,90.10
2018-02-11T05:46:11.170Z,90.10
2018-02-11T05:48:04.277Z,89.91
2018-02-11T05:49:04.248Z,89.91
2018-02-11T05:50:57.196Z,90.48
2018-02-11T05:51:57.148Z,90.86
2018-02-11T05:53:50.093Z,91.62
2018-02-11T05:54:50.048Z,91.71
2018-02-11T05:56:43.223Z,91.81
2018-02-11T05:57:43.110Z,91.81
2018-02-11T05:59:36.088Z,90.48
2018-02-11T06:00:36.018Z,90.86
2018-02-11T06:02:28.824Z,90.86
2018-02-11T06:03:28.787Z,90.58
2018-02-11T06:05:22.080Z,90.86
2018-02-11T06:06:21.879Z,90.10
2018-02-11T06:08:14.878Z,90.86
2018-02-11T06:09:14.784Z,90.77
2018-02-11T06:11:07.735Z,90.20
2018-02-11T06:12:07.720Z,90.39
2018-02-11T06:14:00.919Z,90.20
2018-02-11T06:15:00.793Z,90.77
2018-02-11T06:16:53.788Z,91.05
2018-02-11T06:17:53.713Z,91.05
2018-02-11T06:19:46.669Z,91.14
2018-02-11T06:20:46.628Z,91.05
2018-02-11T06:22:39.454Z,90.39
2018-02-11T06:23:39.394Z,91.14
2018-02-11T06:25:32.394Z,90.77
2018-02-11T06:26:32.355Z,90.39
2018-02-11T06:28:25.327Z,90.29
2018-02-11T06:29:25.269Z,90.29
2018-02-11T06:31:18.225Z,90.29
2018-02-11T06:32:18.170Z,89.34
2018-02-11T06:34:11.234Z,90.01
2018-02-11T06:35:11.170Z,90.01
2018-02-11T06:37:04.000Z,89.44
2018-02-11T06:38:03.935Z,89.53
2018-02-11T06:39:56.744Z,89.44
2018-02-11T06:40:56.690Z,89.15
2018-02-11T06:42:49.663Z,88.49
2018-02-11T06:43:49.605Z,88.87
2018-02-11T06:45:42.403Z,88.59
2018-02-11T06:46:42.368Z,88.40
2018-02-11T06:48:35.364Z,88.40
2018-02-11T06:49:35.173Z,88.40
2018-02-11T06:51:28.229Z,88.59
2018-02-11T06:52:28.167Z,88.63
2018-02-11T06:54:21.120Z,88.49
2018-02-11T06:55:21.076Z,88.78
2018-02-11T06:57:13.910Z,88.68
2018-02-11T06:58:13.845Z,89.25
2018-02-11T07:00:06.694Z,89.63
2018-02-11T07:01:06.605Z,89.44
2018-02-11T07:02:59.443Z,89.53
2018-02-11T07:03:59.364Z,89.82
2018-02-11T07:05:52.670Z,89.72
2018-02-11T07:06:52.614Z,89.25
2018-02-11T07:08:45.520Z,89.77
2018-02-11T07:09:45.463Z,90.10
2018-02-11T07:11:38.610Z,90.01
2018-02-11T07:12:38.559Z,90.48
2018-02-11T07:14:31.503Z,90.29
2018-02-11T07:15:31.455Z,89.34
2018-02-11T07:17:24.370Z,90.20
2018-02-11T07:18:24.305Z,89.91
2018-02-11T07:20:17.260Z,90.15
2018-02-11T07:21:17.235Z,90.10
2018-02-11T07:23:10.170Z,89.91
2018-02-11T07:24:10.201Z,89.91
2018-02-11T07:26:03.091Z,89.91
2018-02-11T07:27:03.023Z,90.15
2018-02-11T07:28:56.045Z,90.48
2018-02-11T07:29:55.995Z,90.10
2018-02-11T07:31:48.928Z,90.15
2018-02-11T07:32:48.880Z,90.20
2018-02-11T07:34:41.716Z,89.96
2018-02-11T07:35:41.646Z,89.91
2018-02-11T07:37:34.439Z,90.43
2018-02-11T07:38:34.404Z,90.24
2018-02-11T07:40:27.219Z,90.05
2018-02-11T07:41:27.171Z,89.29
2018-02-11T07:43:20.178Z,89.67
2018-02-11T07:44:20.100Z,89.48
2018-02-11T07:46:13.161Z,90.24
2018-02-11T07:47:13.112Z,90.34
2018-02-11T07:49:06.334Z,90.24
2018-02-11T07:50:06.190Z,90.05
2018-02-11T07:51:59.051Z,90.34
2018-02-11T07:52:58.942Z,90.43
2018-02-11T07:54:51.891Z,90.15
2018-02-11T07:55:51.858Z,90.15
2018-02-11T07:57:44.816Z,90.05
2018-02-11T07:58:44.758Z,90.15
2018-02-11T08:00:37.584Z,90.05
2018-02-11T08:01:37.516Z,89.67
2018-02-11T08:03:30.539Z,89.86
2018-02-11T08:04:30.496Z,89.58
2018-02-11T08:06:23.460Z,89.67
2018-02-11T08:07:23.431Z,89.20
2018-02-11T08:09:16.385Z,89.20
2018-02-11T08:10:16.306Z,89.39
2018-02-11T08:12:09.128Z,89.01
2018-02-11T08:13:09.076Z,89.20
2018-02-11T08:15:02.035Z,89.29
2018-02-11T08:16:01.957Z,89.20
2018-02-11T08:17:54.933Z,88.73
2018-02-11T08:18:54.856Z,88.54
2018-02-11T08:20:47.818Z,88.82
2018-02-11T08:21:47.760Z,89.01
2018-02-11T08:23:40.562Z,88.58
2018-02-11T08:24:40.544Z,89.43
2018-02-11T08:26:33.474Z,89.11
2018-02-11T08:27:33.414Z,89.34
2018-02-11T08:29:26.340Z,88.48
2018-02-11T08:30:26.301Z,88.68
2018-02-11T08:32:19.137Z,89.34
2018-02-11T08:33:19.114Z,89.06
2018-02-11T08:35:12.330Z,89.34
2018-02-11T08:36:12.150Z,89.06
2018-02-11T08:38:05.084Z,89.25
2018-02-11T08:39:05.044Z,89.43
2018-02-11T08:40:58.159Z,89.43
2018-02-11T08:41:58.108Z,90.19
2018-02-11T08:43:50.926Z,90.67
2018-02-11T08:44:50.899Z,90.38
2018-02-11T08:46:43.844Z,91.05
2018-02-11T08:47:43.774Z,91.52
2018-02-11T08:49:36.717Z,91.80
2018-02-11T08:50:36.674Z,91.80
2018-02-11T08:52:29.500Z,93.80
2018-02-11T08:53:29.448Z,93.61
2018-02-11T08:55:22.690Z,94.46
2018-02-11T08:56:22.492Z,95.03
2018-02-11T08:58:15.441Z,94.84
2018-02-11T08:59:15.392Z,94.56
2018-02-11T09:01:08.404Z,94.74
2018-02-11T09:02:08.329Z,94.37
2018-02-11T09:04:01.487Z,94.74
2018-02-11T09:05:01.440Z,94.65
2018-02-11T09:06:54.419Z,93.80
2018-02-11T09:07:54.360Z,93.89
2018-02-11T09:09:47.302Z,93.32
2018-02-11T09:10:47.250Z,93.61
2018-02-11T09:12:40.090Z,93.75
2018-02-11T09:13:40.032Z,93.70
2018-02-11T09:15:32.982Z,93.08
2018-02-11T09:16:32.925Z,93.46
2018-02-11T09:18:25.886Z,93.46
2018-02-11T09:19:25.832Z,93.27
2018-02-11T09:21:18.774Z,93.08
2018-02-11T09:22:18.731Z,93.75
2018-02-11T09:24:11.786Z,93.27
2018-02-11T09:25:11.620Z,93.56
2018-02-11T09:27:04.663Z,93.08
2018-02-11T09:28:04.616Z,92.90
2018-02-11T09:29:57.552Z,93.27
2018-02-11T09:30:57.517Z,93.65
2018-02-11T09:32:50.716Z,93.84
2018-02-11T09:33:50.575Z,95.17
2018-02-11T09:35:43.542Z,95.60
2018-02-11T09:36:43.496Z,95.12
2018-02-11T09:38:36.945Z,95.60
2018-02-11T09:39:36.807Z,95.50
2018-02-11T09:41:29.760Z,95.50
2018-02-11T09:42:29.732Z,95.60
2018-02-11T09:44:22.710Z,96.08
2018-02-11T09:45:22.652Z,95.31
2018-02-11T09:47:15.570Z,95.41
2018-02-11T09:48:15.542Z,95.55
2018-02-11T09:50:08.572Z,94.51
2018-02-11T09:51:08.519Z,93.94
2018-02-11T09:53:01.309Z,94.03
2018-02-11T09:54:01.348Z,93.46
2018-02-11T09:55:54.258Z,93.84
2018-02-11T09:56:54.214Z,93.46
2018-02-11T09:58:47.029Z,92.42
2018-02-11T09:59:46.992Z,92.42
2018-02-11T10:01:39.982Z,93.27
2018-02-11T10:02:39.902Z,93.27
2018-02-11T10:04:32.902Z,92.71
2018-02-11T10:05:32.873Z,92.80
2018-02-11T10:07:26.080Z,92.23
2018-02-11T10:08:25.995Z,92.71
2018-02-11T10:10:18.977Z,91.85
2018-02-11T10:11:18.919Z,91.28
2018-02-11T10:13:11.732Z,90.52
2018-02-11T10:14:11.797Z,90.71
2018-02-11T10:16:05.133Z,91.04
2018-02-11T10:17:05.071Z,90.52
2018-02-11T10:18:58.057Z,90.19
2018-02-11T10:19:58.011Z,90.09
2018-02-11T10:21:51.152Z,89.62
2018-02-11T10:22:51.096Z,88.57
2018-02-11T10:24:44.064Z,89.24
2018-02-11T10:25:44.021Z,89.05
2018-02-11T10:27:36.844Z,89.72
2018-02-11T10:28:36.777Z,88.86
2018-02-11T10:30:29.985Z,89.05
2018-02-11T10:31:29.910Z,87.91
2018-02-11T10:33:23.032Z,87.24
2018-02-11T10:34:22.990Z,87.82
2018-02-11T10:36:16.268Z,87.53
2018-02-11T10:37:16.128Z,87.24
2018-02-11T10:39:08.951Z,87.24
2018-02-11T10:40:08.923Z,87.05
2018-02-11T10:42:01.765Z,86.68
2018-02-11T10:43:01.642Z,87.34
2018-02-11T10:44:54.482Z,86.30
2018-02-11T10:45:54.421Z,87.05
2018-02-11T10:47:47.392Z,86.20
2018-02-11T10:48:47.344Z,86.49
2018-02-11T10:50:40.234Z,86.11
2018-02-11T10:51:40.202Z,86.20
2018-02-11T10:53:33.201Z,85.20
2018-02-11T10:54:33.141Z,85.20
2018-02-11T10:56:25.936Z,84.16
2018-02-11T10:57:25.903Z,83.68
2018-02-11T10:59:18.913Z,83.78
2018-02-11T11:00:18.828Z,82.54
2018-02-11T11:02:11.791Z,83.87
2018-02-11T11:03:11.706Z,84.44
2018-02-11T11:05:04.696Z,83.78
2018-02-11T11:06:04.633Z,83.68
2018-02-11T11:07:57.607Z,84.25
2018-02-11T11:08:57.585Z,84.91
2018-02-11T11:10:50.777Z,84.16
2018-02-11T11:11:50.712Z,84.25
2018-02-11T11:13:43.747Z,84.06
2018-02-11T11:14:43.711Z,84.16
2018-02-11T11:16:36.618Z,84.53
2018-02-11T11:17:36.578Z,84.91
2018-02-11T11:19:29.716Z,85.01
2018-02-11T11:20:29.529Z,85.30
2018-02-11T11:22:22.338Z,84.53
2018-02-11T11:23:22.308Z,84.44
2018-02-11T11:25:15.283Z,83.68
2018-02-11T11:26:15.254Z,83.78
2018-02-11T11:28:08.438Z,83.87
2018-02-11T11:29:08.289Z,84.16
2018-02-11T11:31:01.271Z,84.53
2018-02-11T11:32:01.199Z,84.06
2018-02-11T11:33:54.162Z,83.78
2018-02-11T11:34:54.118Z,83.59
2018-02-11T11:36:47.306Z,83.68
2018-02-11T11:37:47.206Z,84.06
2018-02-11T11:39:40.143Z,83.78
2018-02-11T11:40:40.109Z,83.39
2018-02-11T11:42:32.960Z,83.87
2018-02-11T11:43:32.982Z,83.11
2018-02-11T11:45:26.112Z,82.82
2018-02-11T11:46:26.029Z,83.30
2018-02-11T11:48:18.972Z,81.97
2018-02-11T11:49:18.929Z,82.73
2018-02-11T11:51:11.843Z,82.07
2018-02-11T11:52:11.808Z,82.26
2018-02-11T11:54:04.990Z,82.73
2018-02-11T11:55:04.908Z,82.64
2018-02-11T11:56:57.911Z,82.54
2018-02-11T11:57:57.813Z,82.54
2018-02-11T11:59:50.762Z,83.11
2018-02-11T12:00:50.721Z,82.92
2018-02-11T12:02:43.532Z,82.82
2018-02-11T12:03:43.473Z,83.11
2018-02-11T12:05:36.563Z,83.78
2018-02-11T12:06:36.490Z,84.63
2018-02-11T12:08:29.451Z,84.44
2018-02-11T12:09:29.404Z,85.20
2018-02-11T12:11:22.337Z,84.40
2018-02-11T12:12:22.297Z,84.06
2018-02-11T12:14:15.406Z,83.64
2018-02-11T12:15:15.291Z,82.97
2018-02-11T12:17:08.230Z,82.78
2018-02-11T12:18:08.202Z,82.92
2018-02-11T12:20:01.189Z,82.16
2018-02-11T12:21:01.143Z,82.16
2018-02-11T12:22:53.967Z,82.16
2018-02-11T12:23:53.892Z,81.30
2018-02-11T12:25:46.850Z,81.78
2018-02-11T12:26:46.803Z,81.97
2018-02-11T12:28:39.778Z,81.12
2018-02-11T12:29:39.732Z,80.69
2018-02-11T12:31:32.644Z,80.55
2018-02-11T12:32:32.618Z,80.83
2018-02-11T12:34:25.711Z,81.40
2018-02-11T12:35:25.643Z,81.87
2018-02-11T12:37:18.603Z,80.83
2018-02-11T12:38:18.542Z,80.74
2018-02-11T12:40:11.482Z,80.64
2018-02-11T12:41:11.442Z,80.26
2018-02-11T12:43:04.277Z,79.88
2018-02-11T12:44:04.211Z,79.88
2018-02-11T12:45:57.218Z,80.64
2018-02-11T12:46:57.142Z,80.16
2018-02-11T12:48:50.096Z,81.17
2018-02-11T12:49:50.038Z,81.87
2018-02-11T12:51:42.997Z,82.16
2018-02-11T12:52:42.935Z,80.98
2018-02-11T12:54:35.804Z,81.45
2018-02-11T12:55:35.725Z,80.88
2018-02-11T12:57:28.609Z,81.36
2018-02-11T12:58:28.490Z,81.07
2018-02-11T13:00:21.300Z,81.26
2018-02-11T13:01:21.249Z,81.17
2018-02-11T13:03:14.229Z,81.84
2018-02-11T13:04:14.150Z,81.17
2018-02-11T13:06:07.143Z,82.03
2018-02-11T13:07:07.069Z,81.93
2018-02-11T13:08:59.898Z,82.59
2018-02-11T13:09:59.830Z,82.50
2018-02-11T13:11:52.888Z,81.74
2018-02-11T13:12:52.861Z,81.26
2018-02-11T13:14:45.913Z,81.17
2018-02-11T13:15:45.835Z,81.78
2018-02-11T13:17:38.650Z,82.07
2018-02-11T13:18:38.602Z,82.12
2018-02-11T13:20:31.554Z,81.17
2018-02-11T13:21:31.386Z,81.87
2018-02-11T13:23:24.302Z,81.40
2018-02-11T13:24:24.287Z,80.69
2018-02-11T13:26:17.224Z,80.98
2018-02-11T13:27:17.179Z,80.74
2018-02-11T13:29:10.127Z,80.35
2018-02-11T13:30:10.078Z,80.32
2018-02-11T13:32:03.083Z,79.84
2018-02-11T13:33:02.923Z,79.97
2018-02-11T13:34:55.902Z,79.36
2018-02-11T13:35:55.824Z,79.46
2018-02-11T13:37:48.830Z,79.55
2018-02-11T13:38:48.779Z,79.55
2018-02-11T13:40:42.029Z,79.79
2018-02-11T13:41:41.997Z,78.55
2018-02-11T13:43:34.971Z,78.51
2018-02-11T13:44:34.997Z,78.23
2018-02-11T13:46:28.185Z,78.45
2018-02-11T13:47:27.963Z,79.50
2018-02-11T13:49:20.898Z,78.89
2018-02-11T13:50:20.853Z,78.45
2018-02-11T13:52:13.848Z,79.22
2018-02-11T13:53:13.883Z,79.88
2018-02-11T13:55:06.936Z,78.83
2018-02-11T13:56:06.868Z,77.89
2018-02-11T13:57:59.845Z,78.55
2018-02-11T13:58:59.790Z,78.55
2018-02-11T14:00:52.701Z,78.27
2018-02-11T14:01:52.690Z,77.70
2018-02-11T14:03:45.853Z,77.41
2018-02-11T14:04:45.729Z,77.26
2018-02-11T14:06:38.654Z,77.17
2018-02-11T14:07:38.633Z,77.07
2018-02-11T14:09:31.615Z,76.03
2018-02-11T14:10:31.554Z,76.40
2018-02-11T14:12:24.705Z,76.50
2018-02-11T14:13:24.635Z,76.50
2018-02-11T14:15:17.488Z,76.78
2018-02-11T14:16:17.418Z,75.99
2018-02-11T14:18:10.348Z,77.31
2018-02-11T14:19:10.322Z,77.12
2018-02-11T14:21:03.441Z,77.60
2018-02-11T14:22:03.339Z,77.79
2018-02-11T14:23:56.304Z,77.31
2018-02-11T14:24:56.238Z,77.22
2018-02-11T14:26:49.201Z,78.55
2018-02-11T14:27:49.147Z,78.08
2018-02-11T14:29:42.155Z,78.27
2018-02-11T14:30:42.063Z,78.64
2018-02-11T14:32:34.902Z,78.36
2018-02-11T14:33:34.844Z,77.70
2018-02-11T14:35:27.794Z,77.41
2018-02-11T14:36:27.746Z,77.31
2018-02-11T14:38:20.704Z,78.64
2018-02-11T14:39:20.684Z,78.36
2018-02-11T14:41:13.826Z,77.89
2018-02-11T14:42:13.756Z,77.89
2018-02-11T14:44:06.678Z,76.65
2018-02-11T14:45:06.644Z,76.27
2018-02-11T14:46:59.609Z,77.51
2018-02-11T14:47:59.563Z,78.17
2018-02-11T14:49:52.768Z,77.60
2018-02-11T14:50:52.675Z,77.03
2018-02-11T14:52:45.485Z,76.75
2018-02-11T14:53:45.413Z,75.99
2018-02-11T14:55:38.515Z,76.84
2018-02-11T14:56:38.479Z,76.93
2018-02-11T14:58:31.642Z,76.75
2018-02-11T14:59:31.520Z,75.99
2018-02-11T15:01:24.503Z,76.75
2018-02-11T15:02:24.449Z,76.27
2018-02-11T15:04:17.405Z,76.71
2018-02-11T15:05:17.334Z,76.52
2018-02-11T15:07:10.498Z,76.65
2018-02-11T15:08:10.445Z,76.75
2018-02-11T15:10:03.263Z,77.12
2018-02-11T15:11:03.221Z,77.94
2018-02-11T15:12:55.998Z,78.03
2018-02-11T15:13:55.957Z,78.80
2018-02-11T15:15:48.969Z,79.27
2018-02-11T15:16:48.925Z,79.84
2018-02-11T15:18:41.804Z,79.74
2018-02-11T15:19:41.737Z,79.71
2018-02-11T15:21:34.588Z,80.60
2018-02-11T15:22:34.512Z,79.99
2018-02-11T15:24:27.502Z,80.22
2018-02-11T15:25:27.456Z,80.32
2018-02-11T15:27:20.422Z,80.60
2018-02-11T15:28:20.389Z,79.99
2018-02-11T15:30:13.181Z,80.13
2018-02-11T15:31:13.135Z,79.94
2018-02-11T15:33:05.978Z,80.60
2018-02-11T15:34:05.910Z,79.65
2018-02-11T15:35:58.897Z,79.80
2018-02-11T15:36:58.848Z,79.94
2018-02-11T15:38:51.769Z,78.28
2018-02-11T15:39:51.798Z,78.66
2018-02-11T15:41:44.936Z,78.75
2018-02-11T15:42:44.824Z,77.71
2018-02-11T15:44:37.755Z,77.14
2018-02-11T15:45:37.709Z,76.80
2018-02-11T15:47:30.684Z,77.18
2018-02-11T15:48:30.648Z,76.80
2018-02-11T15:50:23.860Z,77.43
2018-02-11T15:51:23.790Z,77.09
2018-02-11T15:53:16.754Z,77.75
2018-02-11T15:54:16.688Z,77.33
2018-02-11T15:56:09.641Z,77.43
2018-02-11T15:57:09.573Z,78.09
2018-02-11T15:59:02.655Z,78.47
2018-02-11T16:00:02.438Z,78.09
2018-02-11T16:01:55.288Z,78.47
2018-02-11T16:02:55.202Z,78.47
2018-02-11T16:04:48.193Z,78.75
2018-02-11T16:05:48.160Z,79.14
2018-02-11T16:07:40.976Z,79.14
2018-02-11T16:08:40.921Z,79.52
2018-02-11T16:10:34.094Z,79.80
2018-02-11T16:11:34.011Z,79.71
2018-02-11T16:13:27.003Z,80.08
2018-02-11T16:14:26.923Z,80.08
2018-02-11T16:16:19.915Z,79.52
2018-02-11T16:17:19.858Z,78.47
2018-02-11T16:19:13.000Z,77.81
2018-02-11T16:20:12.945Z,77.81
2018-02-11T16:22:05.791Z,77.52
2018-02-11T16:23:05.704Z,77.33
2018-02-11T16:24:58.684Z,75.53
2018-02-11T16:25:58.684Z,74.58
2018-02-11T16:27:51.702Z,74.30
2018-02-11T16:28:51.630Z,74.11
2018-02-11T16:30:44.570Z,73.82
2018-02-11T16:31:44.513Z,74.11
2018-02-11T16:33:37.553Z,73.88
2018-02-11T16:34:37.574Z,73.41
2018-02-11T16:36:30.624Z,74.35
2018-02-11T16:37:30.567Z,74.64
2018-02-11T16:39:23.540Z,74.54
2018-02-11T16:40:23.485Z,74.54
2018-02-11T16:42:16.401Z,75.02
2018-02-11T16:43:16.366Z,75.02
2018-02-11T16:45:09.631Z,75.40
2018-02-11T16:46:09.580Z,75.02
2018-02-11T16:48:02.363Z,75.96
2018-02-11T16:49:02.331Z,76.44
2018-02-11T16:50:55.302Z,76.34
2018-02-11T16:51:55.239Z,77.01
2018-02-11T16:53:48.431Z,77.48
2018-02-11T16:54:48.325Z,77.20
2018-02-11T16:56:41.295Z,77.16
2018-02-11T16:57:41.244Z,77.35
2018-02-11T16:59:34.065Z,77.83
2018-02-11T17:00:34.010Z,77.83
2018-02-11T17:02:27.154Z,78.02
2018-02-11T17:03:27.140Z,78.49
2018-02-11T17:05:20.075Z,79.06
2018-02-11T17:06:20.005Z,79.06
2018-02-11T17:08:12.960Z,79.44
2018-02-11T17:09:12.971Z,79.15
2018-02-11T17:11:06.203Z,79.63
2018-02-11T17:12:06.110Z,79.91
2018-02-11T17:13:59.079Z,80.19
2018-02-11T17:14:59.025Z,80.00
2018-02-11T17:16:51.843Z,80.57
2018-02-11T17:17:51.798Z,80.86
2018-02-11T17:19:44.990Z,81.14
2018-02-11T17:20:44.880Z,81.71
2018-02-11T17:22:37.871Z,82.09
2018-02-11T17:23:37.779Z,81.71
2018-02-11T17:25:30.762Z,82.75
2018-02-11T17:26:30.703Z,83.13
2018-02-11T17:28:23.572Z,82.75
2018-02-11T17:29:23.530Z,82.85
2018-02-11T17:31:16.468Z,82.85
2018-02-11T17:32:16.303Z,83.13
2018-02-11T17:34:09.100Z,82.85
2018-02-11T17:35:09.026Z,82.94
2018-02-11T17:37:02.013Z,83.00
2018-02-11T17:38:01.945Z,83.13
2018-02-11T17:39:54.909Z,82.90
2018-02-11T17:40:54.854Z,83.09
2018-02-11T17:42:47.686Z,82.94
2018-02-11T17:43:47.630Z,83.13
2018-02-11T17:45:40.596Z,82.94
2018-02-11T17:46:40.562Z,82.47
2018-02-11T17:48:33.406Z,82.75
2018-02-11T17:49:33.300Z,82.28
2018-02-11T17:51:26.264Z,82.37
2018-02-11T17:52:26.232Z,82.56
2018-02-11T17:54:19.445Z,82.37
2018-02-11T17:55:19.347Z,82.85
2018-02-11T17:57:12.330Z,85.46
2018-02-11T17:58:12.295Z,87.07
2018-02-11T18:00:05.075Z,87.45
2018-02-11T18:01:05.055Z,87.83
2018-02-11T18:02:57.830Z,88.87
2018-02-11T18:03:57.900Z,88.87
2018-02-11T18:05:50.758Z,88.49
2018-02-11T18:06:50.612Z,88.78
2018-02-11T18:08:43.565Z,88.59
2018-02-11T18:09:43.552Z,88.78
2018-02-11T18:11:36.551Z,87.92
2018-02-11T18:12:36.429Z,87.45
2018-02-11T18:14:29.424Z,87.64
2018-02-11T18:15:29.384Z,87.73
2018-02-11T18:17:22.382Z,87.92
2018-02-11T18:18:22.345Z,88.35
2018-02-11T18:20:15.311Z,88.92
2018-02-11T18:21:15.255Z,88.35
2018-02-11T18:23:08.185Z,88.45
2018-02-11T18:24:08.142Z,87.88
2018-02-11T18:26:01.042Z,87.88
2018-02-11T18:27:00.982Z,87.88
2018-02-11T18:28:53.915Z,88.45
2018-02-11T18:29:53.902Z,88.73
2018-02-11T18:31:46.859Z,88.35
2018-02-11T18:32:46.793Z,88.73